Главная страница
METAR-TAF:

METAR-TAF

Аэропорты :

Стокгольм-Арланда, Швеция

широта: 59-39N, долгота: 017-57E, высота над уровнем моря: 38 м

Текущие метеонаблюдения

Эта сводка был подготовлена 26 минут назад, в 09:50 UTC
Ветер 20 Узел от западный
Температура 9°C
Влажность 71%
Давление 1011 hPa
Видимость 10 км и более
Рассеянная облачность на высоте 2300 фута
Рассеянная облачность на высоте 3200 фута

METAR: ESSA 230950Z 26020KT 9999 BKN023 BKN032 09/04 Q1011 R01L/19//95 R08/19//95 R01R/19//95 NOSIG

Время: 11:16 (10:16 UTC)

Прогноз

Эта сводка был подготовлена 4 часа и 46 минут назад, в 05:30 UTC
Прогноз действительный с 23-го 06 UTC до 24-го 06 UTC
Ветер 15 Узел от южный
Видимость 10 км и более
Рассеянная облачность на высоте 2500 фута
изменения
С 23-го 10 UTC до 23-го 12 UTC
Ветер 17 Узел от западный-юго-западный с порывами до 33 Узел
изменения
С 24-го 00 UTC до 24-го 02 UTC
Ветер 9 Узел от западный

TAF: ESSA 230530Z 2306/2406 19015KT 9999 BKN025 BECMG 2310/2312 25017G33KT BECMG 2400/2402 27009KT

Метеонаблюдения и прогнозы для более 4000 аэропортов (сводки METAR и TAF).

Имеющиеся станции представлены на карте желтыми и красными точками.

Чтобы увидеть название станции, наведите на нее мышь.

Затем щелкните, чтобы увидеть метеонаблюдения и метеопрогнозы.

Управление картой: чтобы увеличить масштаб, щелкните зеленые кнопки с черным крестиком; чтобы уменьшить масштаб, щелкните зеленую кнопку с тире; для просмотра соседних карт щелкайте зеленые стрелки.


METAR-TAF: